Time;durP1;ratioP1;P1;durP2;ratioP2;P2;SDS_P1;SDS_P2;PMS_P1;PMS_P2;Temp;Humidity;BMP_temperature;BMP_pressure;BME280_temperature;BME280_humidity;BME280_pressure;Samples;Min_cycle;Max_cycle;Signal;HPM_P1;HPM_P2
2021/09/12 00:00:30;;;;;;;34.75;22.05;;;;;;;16.07;75.31;99130.50;5054043;28;20075;-76
2021/09/12 00:02:58;;;;;;;39.13;21.70;;;;;;;16.08;75.17;99132.94;5046114;28;20079;-75
2021/09/12 00:05:24;;;;;;;36.13;22.98;;;;;;;16.03;75.37;99127.63;5033138;28;20041;-75
2021/09/12 00:07:50;;;;;;;41.17;23.55;;;;;;;16.09;75.17;99125.50;5019927;28;20415;-75
2021/09/12 00:10:16;;;;;;;35.30;22.48;;;;;;;16.05;75.41;99130.84;5027775;28;20072;-75
2021/09/12 00:12:42;;;;;;;41.25;23.25;;;;;;;16.09;74.86;99128.25;5022918;28;20042;-75
2021/09/12 00:15:10;;;;;;;38.40;22.97;;;;;;;16.06;75.00;99126.94;5043510;28;20103;-76
2021/09/12 00:17:36;;;;;;;38.22;23.20;;;;;;;16.06;75.01;99121.44;5026456;28;20496;-74
2021/09/12 00:20:06;;;;;;;35.63;23.00;;;;;;;16.04;74.75;99128.41;5026747;28;20051;-75
2021/09/12 00:22:33;;;;;;;37.83;23.10;;;;;;;16.05;74.75;99133.59;5028153;28;20099;-76
2021/09/12 00:24:59;;;;;;;38.03;23.45;;;;;;;16.05;74.65;99130.84;5040683;28;20068;-75
2021/09/12 00:27:25;;;;;;;40.65;23.00;;;;;;;16.03;74.96;99130.38;5046450;28;20409;-75
2021/09/12 00:29:51;;;;;;;38.80;22.90;;;;;;;16.05;74.88;99127.28;5028389;28;20042;-75
2021/09/12 00:32:17;;;;;;;33.95;23.08;;;;;;;16.01;74.72;99127.13;5028168;28;20319;-75
2021/09/12 00:34:43;;;;;;;33.85;22.23;;;;;;;16.01;74.88;99122.41;5030248;28;20049;-77
2021/09/12 00:37:10;;;;;;;33.45;22.80;;;;;;;15.99;74.49;99119.19;4996159;28;20072;-77
2021/09/12 00:39:37;;;;;;;41.63;24.90;;;;;;;15.96;74.85;99119.84;5012857;28;20049;-76
2021/09/12 00:42:03;;;;;;;38.65;22.98;;;;;;;15.92;74.82;99120.81;5030220;28;20410;-76
2021/09/12 00:44:29;;;;;;;38.47;23.30;;;;;;;15.96;74.51;99119.84;5037882;28;20069;-77
2021/09/12 00:47:06;;;;;;;35.60;22.50;;;;;;;15.96;74.37;99114.31;5027450;28;20466;-76
2021/09/12 00:49:32;;;;;;;38.35;22.77;;;;;;;15.95;74.63;99126.50;5027708;28;20056;-76
2021/09/12 00:52:00;;;;;;;36.72;22.85;;;;;;;15.95;74.55;99111.88;5052886;28;20054;-77
2021/09/12 00:54:29;;;;;;;36.08;23.33;;;;;;;15.92;74.52;99107.88;5057059;28;20064;-77
2021/09/12 00:56:56;;;;;;;37.58;23.90;;;;;;;15.95;74.41;99118.22;5046367;28;20429;-77
2021/09/12 00:59:23;;;;;;;44.67;24.65;;;;;;;15.93;74.37;99116.94;5043965;28;20046;-77
2021/09/12 01:01:49;;;;;;;38.42;23.25;;;;;;;15.92;74.31;99110.63;5011485;28;20050;-77
2021/09/12 01:04:15;;;;;;;38.47;23.37;;;;;;;15.94;74.22;99121.31;5045402;28;20045;-77
2021/09/12 01:06:42;;;;;;;36.20;23.55;;;;;;;15.92;74.37;99113.38;5059798;28;20136;-77
2021/09/12 01:09:11;;;;;;;40.28;24.33;;;;;;;15.90;74.44;99118.38;5029320;28;20037;-77
2021/09/12 01:11:38;;;;;;;40.70;24.02;;;;;;;15.87;74.52;99111.56;5030233;28;20084;-76
2021/09/12 01:14:04;;;;;;;38.80;23.42;;;;;;;15.77;74.67;99098.13;5029500;28;20053;-76
2021/09/12 01:16:30;;;;;;;37.28;23.20;;;;;;;15.83;74.57;99104.28;5029801;28;20040;-76
2021/09/12 01:18:56;;;;;;;42.47;23.33;;;;;;;15.71;75.14;99108.50;5029100;28;20034;-76
2021/09/12 01:21:26;;;;;;;37.95;23.92;;;;;;;15.71;75.11;99102.19;5045241;28;20095;-77
2021/09/12 01:23:53;;;;;;;38.67;23.75;;;;;;;15.64;74.64;99085.31;5026544;28;20041;-76
2021/09/12 01:26:22;;;;;;;37.65;23.48;;;;;;;15.74;74.90;99102.31;5031846;28;20044;-77
2021/09/12 01:28:48;;;;;;;35.42;23.23;;;;;;;15.75;74.71;99103.16;5033836;28;20080;-76
2021/09/12 01:31:19;;;;;;;43.47;23.13;;;;;;;15.72;74.87;99093.56;5033124;28;20053;-77
2021/09/12 01:33:45;;;;;;;32.38;21.63;;;;;;;15.72;74.73;99099.09;5041109;28;20041;-77
2021/09/12 01:36:11;;;;;;;44.28;24.88;;;;;;;15.69;74.70;99093.44;5047879;28;20068;-76
2021/09/12 01:38:37;;;;;;;41.92;23.02;;;;;;;15.71;74.77;99102.97;5027947;28;20052;-77
2021/09/12 01:41:06;;;;;;;36.70;23.65;;;;;;;15.69;74.53;99094.22;5033747;28;20042;-76
2021/09/12 01:43:33;;;;;;;37.17;24.17;;;;;;;15.68;74.50;99098.13;5062561;28;20095;-76
2021/09/12 01:45:59;;;;;;;36.35;24.42;;;;;;;15.62;74.61;99104.13;5049142;28;20061;-76
2021/09/12 01:48:25;;;;;;;40.30;24.00;;;;;;;15.54;74.61;99090.06;5065128;28;20140;-77
2021/09/12 01:50:51;;;;;;;37.35;24.48;;;;;;;15.57;74.59;99094.09;5032050;28;20045;-76
2021/09/12 01:53:20;;;;;;;35.50;24.23;;;;;;;15.52;75.21;99092.28;5032482;28;20111;-77
2021/09/12 01:55:46;;;;;;;36.92;23.63;;;;;;;15.43;75.23;99095.06;5033585;28;20095;-77
2021/09/12 01:58:14;;;;;;;38.25;23.98;;;;;;;15.37;75.73;99084.53;5065495;28;20045;-76
2021/09/12 02:00:42;;;;;;;36.80;23.95;;;;;;;15.29;75.72;99086.16;5044819;28;20132;-76
2021/09/12 02:03:08;;;;;;;36.35;24.15;;;;;;;15.39;75.37;99085.84;5032954;28;20132;-76
2021/09/12 02:05:34;;;;;;;37.03;24.40;;;;;;;15.40;75.11;99081.94;5048791;28;20124;-76
2021/09/12 02:07:59;;;;;;;36.55;24.75;;;;;;;15.45;74.82;99083.72;5033670;28;20129;-76
2021/09/12 02:10:26;;;;;;;36.60;23.92;;;;;;;15.48;74.85;99080.31;5029531;28;20135;-76
2021/09/12 02:12:53;;;;;;;35.72;23.35;;;;;;;15.45;74.65;99067.19;5033510;28;20155;-77
2021/09/12 02:15:19;;;;;;;40.38;24.83;;;;;;;15.51;74.24;99085.16;5047408;28;20057;-76
2021/09/12 02:17:46;;;;;;;40.92;23.52;;;;;;;15.49;74.22;99089.41;5047437;28;21633;-76
2021/09/12 02:20:12;;;;;;;40.30;23.27;;;;;;;15.51;74.27;99082.41;5025663;28;20387;-76
2021/09/12 02:22:42;;;;;;;38.75;23.45;;;;;;;15.52;74.20;99089.53;5027772;28;20407;-77
2021/09/12 02:25:08;;;;;;;47.47;23.88;;;;;;;15.54;74.18;99079.03;5047885;28;20049;-77
2021/09/12 02:27:34;;;;;;;37.30;23.30;;;;;;;15.53;73.98;99084.84;5027566;28;20049;-77
2021/09/12 02:30:00;;;;;;;38.85;24.23;;;;;;;15.52;73.99;99083.25;5030527;28;20046;-77
2021/09/12 02:32:26;;;;;;;41.75;23.92;;;;;;;15.50;74.02;99085.50;5029026;28;20441;-77
2021/09/12 02:34:54;;;;;;;38.10;23.38;;;;;;;15.53;74.05;99079.34;5026920;28;20076;-77
2021/09/12 02:37:20;;;;;;;;;;;;;;;15.49;74.21;99076.44;5064512;28;20136;-76
2021/09/12 02:39:46;;;;;;;37.45;22.88;;;;;;;15.46;74.11;99074.31;5028805;28;19925;-76
2021/09/12 02:42:11;;;;;;;43.13;23.75;;;;;;;15.48;73.71;99079.53;5048532;28;20045;-75
2021/09/12 02:44:37;;;;;;;37.70;23.20;;;;;;;15.45;74.06;99069.97;5047577;28;20050;-75
2021/09/12 02:47:03;;;;;;;44.17;23.42;;;;;;;15.42;74.10;99081.63;5033265;28;20045;-76
2021/09/12 02:49:29;;;;;;;39.15;23.83;;;;;;;15.39;73.89;99080.31;5029442;28;20395;-76
2021/09/12 02:51:57;;;;;;;39.85;23.85;;;;;;;15.42;74.03;99076.91;5048264;28;20140;-76
2021/09/12 02:54:23;;;;;;;38.92;23.23;;;;;;;15.39;74.07;99072.06;5031387;28;20424;-73
2021/09/12 02:56:49;;;;;;;40.90;22.65;;;;;;;15.42;74.01;99082.41;5059926;28;20049;-76
2021/09/12 02:59:15;;;;;;;41.15;24.45;;;;;;;15.39;73.73;99077.56;5038620;28;20052;-76
2021/09/12 03:01:40;;;;;;;34.83;23.17;;;;;;;15.40;73.62;99081.16;5036828;28;20048;-76
2021/09/12 03:04:06;;;;;;;35.35;23.83;;;;;;;15.40;73.84;99081.16;5081439;28;20060;-77
2021/09/12 03:06:32;;;;;;;41.88;23.88;;;;;;;15.41;73.68;99077.25;5074133;28;20505;-76
2021/09/12 03:08:59;;;;;;;41.97;24.20;;;;;;;15.39;73.49;99076.78;5037758;28;20124;-76
2021/09/12 03:11:25;;;;;;;39.55;24.15;;;;;;;15.39;73.55;99085.03;5029948;28;20097;-76
2021/09/12 03:13:52;;;;;;;39.72;23.85;;;;;;;15.40;73.59;99083.91;5033790;28;20037;-76
2021/09/12 03:16:18;;;;;;;39.25;23.20;;;;;;;15.38;73.21;99081.47;5047108;28;20606;-76
2021/09/12 03:18:44;;;;;;;35.58;23.40;;;;;;;15.35;73.56;99082.13;5032579;28;20136;-75
2021/09/12 03:21:13;;;;;;;50.03;25.02;;;;;;;15.41;73.40;99085.53;5028936;28;20300;-76
2021/09/12 03:23:42;;;;;;;41.50;23.17;;;;;;;15.37;73.35;99082.59;5048408;28;20054;-76
2021/09/12 03:26:10;;;;;;;37.95;23.60;;;;;;;15.36;73.47;99092.00;5030924;28;20456;-76
2021/09/12 03:28:39;;;;;;;37.63;24.33;;;;;;;15.33;73.26;99087.16;5033388;28;20073;-76
2021/09/12 03:31:05;;;;;;;38.33;23.40;;;;;;;15.38;73.27;99099.94;5029427;28;20135;-76
2021/09/12 03:33:34;;;;;;;37.67;22.27;;;;;;;15.36;73.47;99083.72;5064887;28;20110;-76
2021/09/12 03:36:04;;;;;;;38.80;24.13;;;;;;;15.45;73.27;99089.25;5032478;28;20037;-76
2021/09/12 03:38:30;;;;;;;39.95;23.67;;;;;;;15.30;73.58;99085.03;5040530;28;20072;-76
2021/09/12 03:40:56;;;;;;;37.45;22.27;;;;;;;15.10;74.02;99084.53;5045283;28;20130;-76
2021/09/12 03:43:24;;;;;;;41.75;24.65;;;;;;;14.97;74.54;99090.97;5032166;28;20077;-75
2021/09/12 03:45:51;;;;;;;35.47;23.08;;;;;;;14.98;75.11;99089.84;5027206;28;20071;-75
2021/09/12 03:48:17;;;;;;;43.63;24.00;;;;;;;15.05;74.32;99095.72;5063897;28;20084;-76
2021/09/12 03:50:43;;;;;;;40.25;23.25;;;;;;;15.13;74.20;99096.84;5044052;28;20640;-76
2021/09/12 03:53:09;;;;;;;34.95;22.55;;;;;;;15.22;74.00;99100.44;5030127;28;20041;-76
2021/09/12 03:55:34;;;;;;;40.28;22.75;;;;;;;15.17;74.04;99100.56;5031100;28;20792;-76
2021/09/12 03:58:03;;;;;;;34.35;22.30;;;;;;;15.20;74.13;99099.91;5032012;28;20045;-76
2021/09/12 04:00:31;;;;;;;36.97;22.50;;;;;;;15.15;74.29;99095.41;5054143;28;20041;-76
2021/09/12 04:02:57;;;;;;;37.67;23.20;;;;;;;15.16;73.96;99094.25;5031756;28;20058;-75
2021/09/12 04:05:23;;;;;;;34.75;21.83;;;;;;;15.20;73.73;99090.84;5029124;28;20043;-75
2021/09/12 04:07:49;;;;;;;35.00;21.25;;;;;;;15.28;73.54;99095.53;5064295;28;20045;-76
2021/09/12 04:10:15;;;;;;;44.58;22.85;;;;;;;15.25;73.77;99099.78;5043475;28;20605;-76
2021/09/12 04:12:41;;;;;;;35.50;22.45;;;;;;;15.31;73.52;99098.47;5061523;28;20136;-75
2021/09/12 04:15:07;;;;;;;33.72;21.77;;;;;;;15.24;74.03;99089.06;5061624;28;20145;-76
2021/09/12 04:17:36;;;;;;;38.75;22.63;;;;;;;15.25;73.52;99090.69;5063328;28;20418;-76
2021/09/12 04:20:03;;;;;;;32.83;21.92;;;;;;;15.31;73.57;99098.47;5030027;28;20053;-77
2021/09/12 04:22:30;;;;;;;37.95;22.13;;;;;;;15.20;73.70;99085.34;5042217;28;20064;-76
2021/09/12 04:24:55;;;;;;;39.05;22.38;;;;;;;15.24;73.74;99089.91;5035086;28;20430;-76
2021/09/12 04:27:21;;;;;;;34.20;23.08;;;;;;;15.17;73.88;99093.13;5045195;28;20076;-76
2021/09/12 04:29:48;;;;;;;39.15;24.80;;;;;;;15.05;74.15;99097.63;5032191;28;20521;-75
2021/09/12 04:32:14;;;;;;;39.08;24.85;;;;;;;15.08;74.33;99088.75;5030609;28;20119;-76
2021/09/12 04:34:47;;;;;;;40.55;23.30;;;;;;;15.17;74.04;99092.31;5047519;28;20140;-76
2021/09/12 04:37:13;;;;;;;37.47;24.27;;;;;;;15.12;74.45;99100.72;5031325;28;20045;-77
2021/09/12 04:40:05;;;;;;;35.67;23.20;;;;;;;15.15;74.17;99103.66;5031253;28;20079;-77
2021/09/12 04:42:36;;;;;;;37.72;24.05;;;;;;;15.18;74.25;99099.44;5026561;28;20394;-79
2021/09/12 04:45:06;;;;;;;38.00;24.70;;;;;;;15.08;74.45;99089.56;5032215;28;20048;-77
2021/09/12 04:47:32;;;;;;;41.65;23.63;;;;;;;15.10;74.70;99092.78;5029810;28;20046;-75
2021/09/12 04:49:59;;;;;;;35.97;22.92;;;;;;;15.15;74.95;99089.91;5029881;28;20099;-77
2021/09/12 04:52:27;;;;;;;40.67;22.33;;;;;;;15.21;74.84;99089.72;5030772;28;20052;-76
2021/09/12 04:54:56;;;;;;;39.42;22.38;;;;;;;15.23;74.69;99091.03;5030986;28;20053;-76
2021/09/12 04:57:22;;;;;;;34.45;23.13;;;;;;;15.35;74.42;99084.03;5026939;28;20069;-77
2021/09/12 04:59:48;;;;;;;37.45;22.80;;;;;;;15.45;73.87;99090.06;5040356;28;20551;-76
2021/09/12 05:02:14;;;;;;;34.28;21.95;;;;;;;15.46;74.37;99085.34;5029639;28;20136;-76
2021/09/12 05:04:39;;;;;;;34.22;22.55;;;;;;;15.51;73.70;99076.13;5062608;28;20042;-76
2021/09/12 05:07:10;;;;;;;33.05;21.45;;;;;;;15.57;73.76;99083.88;5030000;28;20123;-77
2021/09/12 05:09:36;;;;;;;35.30;21.65;;;;;;;15.60;73.89;99085.16;5060256;28;20092;-76
2021/09/12 05:12:02;;;;;;;39.25;22.20;;;;;;;15.59;73.79;99089.06;5029943;28;20069;-77
2021/09/12 05:14:31;;;;;;;36.63;22.67;;;;;;;15.67;73.65;99085.50;5030790;28;20051;-77
2021/09/12 05:16:57;;;;;;;34.80;22.92;;;;;;;15.69;73.49;99088.72;5030136;28;20191;-77
2021/09/12 05:19:26;;;;;;;41.45;21.58;;;;;;;15.74;73.62;99082.25;5043744;28;20045;-77
2021/09/12 05:21:52;;;;;;;37.25;21.20;;;;;;;15.75;73.79;99078.34;5061825;28;20052;-77
2021/09/12 05:24:19;;;;;;;35.42;21.48;;;;;;;15.88;73.44;99084.78;5045618;28;20460;-77
2021/09/12 05:26:45;;;;;;;32.42;21.90;;;;;;;15.85;73.11;99069.75;5027771;28;20042;-76
2021/09/12 05:29:11;;;;;;;32.42;21.00;;;;;;;15.97;72.76;99066.31;5026956;28;20049;-76
2021/09/12 05:31:40;;;;;;;35.40;22.25;;;;;;;15.95;72.90;99071.38;5028570;28;20084;-76
2021/09/12 05:34:09;;;;;;;35.88;21.55;;;;;;;15.97;73.10;99077.34;5030125;28;20453;-77
2021/09/12 05:36:35;;;;;;;33.72;22.75;;;;;;;16.02;72.92;99073.63;5028698;28;20060;-76
2021/09/12 05:39:01;;;;;;;35.65;22.23;;;;;;;16.05;73.00;99070.19;5029008;28;20041;-76
2021/09/12 05:41:28;;;;;;;38.35;22.13;;;;;;;16.05;73.03;99081.22;5040851;28;20076;-75
2021/09/12 05:43:54;;;;;;;36.08;22.10;;;;;;;16.06;72.63;99076.50;5028678;28;20069;-77
2021/09/12 05:46:22;;;;;;;33.60;22.20;;;;;;;16.10;72.86;99071.97;5028731;28;20045;-76
2021/09/12 05:48:51;;;;;;;32.50;21.48;;;;;;;16.21;72.64;99070.44;5025834;28;20045;-77
2021/09/12 05:51:17;;;;;;;37.05;20.40;;;;;;;16.34;72.49;99065.03;5027915;28;20049;-78
2021/09/12 05:53:43;;;;;;;37.80;20.77;;;;;;;16.38;72.71;99066.81;5026956;28;20049;-76
2021/09/12 05:56:12;;;;;;;33.15;20.30;;;;;;;16.48;72.10;99064.84;5045463;28;20460;-77
2021/09/12 05:58:40;;;;;;;34.65;19.92;;;;;;;16.55;71.56;99067.88;5045055;28;20462;-77
2021/09/12 06:01:05;;;;;;;;;;;;;;;16.69;71.35;99070.38;5027839;28;20136;-76
2021/09/12 06:03:31;;;;;;;40.45;19.83;;;;;;;16.68;71.63;99060.47;5027408;28;20056;-76
2021/09/12 06:05:57;;;;;;;40.58;20.02;;;;;;;16.75;71.53;99069.06;5042775;28;20096;-76
2021/09/12 06:08:23;;;;;;;41.30;21.65;;;;;;;16.79;71.93;99067.22;5029325;28;20041;-76
2021/09/12 06:10:49;;;;;;;36.90;21.08;;;;;;;16.79;71.92;99064.47;5044377;28;20510;-75
2021/09/12 06:13:15;;;;;;;30.75;20.90;;;;;;;16.82;71.59;99060.25;5017117;28;20072;-76
2021/09/12 06:15:42;;;;;;;35.47;20.77;;;;;;;16.87;71.38;99069.16;5015314;28;20049;-76
2021/09/12 06:18:08;;;;;;;31.85;21.33;;;;;;;16.88;71.74;99064.41;5046082;28;20095;-76
2021/09/12 06:20:34;;;;;;;35.38;21.55;;;;;;;16.83;71.63;99056.34;5031365;28;20041;-76
2021/09/12 06:23:01;;;;;;;31.83;20.60;;;;;;;16.77;71.74;99050.22;5036889;28;20055;-76
2021/09/12 06:25:27;;;;;;;33.55;21.27;;;;;;;16.79;71.60;99047.91;5030131;28;20073;-76
2021/09/12 06:27:53;;;;;;;35.40;21.27;;;;;;;16.83;71.56;99056.34;5047088;28;20076;-76
2021/09/12 06:30:22;;;;;;;32.78;23.10;;;;;;;16.80;71.94;99060.56;5031174;28;20509;-76
2021/09/12 06:32:50;;;;;;;33.30;21.35;;;;;;;16.81;71.86;99072.44;5030593;28;20140;-76
2021/09/12 06:35:16;;;;;;;36.65;21.20;;;;;;;16.90;71.96;99077.91;5029819;28;20037;-76
2021/09/12 06:37:42;;;;;;;37.63;21.38;;;;;;;16.94;71.71;99073.31;5024942;28;20080;-75
2021/09/12 06:40:09;;;;;;;32.80;20.92;;;;;;;17.01;71.73;99074.44;5034190;28;20045;-75
2021/09/12 06:42:35;;;;;;;39.15;20.15;;;;;;;17.10;71.33;99079.09;5038023;28;20555;-76
2021/09/12 06:45:02;;;;;;;33.55;19.63;;;;;;;17.15;71.26;99076.13;5031922;28;20488;-76
2021/09/12 06:47:28;;;;;;;37.03;20.15;;;;;;;17.21;70.90;99073.97;5038863;28;20046;-76
2021/09/12 06:49:55;;;;;;;31.73;19.70;;;;;;;17.19;70.95;99084.56;5029957;28;20052;-76
2021/09/12 06:52:21;;;;;;;36.33;20.67;;;;;;;17.22;71.06;99076.38;5032616;28;20060;-77
2021/09/12 06:54:47;;;;;;;33.72;20.05;;;;;;;17.28;70.80;99075.03;5063222;28;20049;-76
2021/09/12 06:57:13;;;;;;;31.23;19.55;;;;;;;17.32;70.71;99079.88;5028905;28;20033;-78
2021/09/12 06:59:39;;;;;;;32.05;19.95;;;;;;;17.31;71.17;99084.59;5029370;28;20042;-77
2021/09/12 07:02:05;;;;;;;32.13;18.30;;;;;;;17.32;70.74;99072.38;5037612;28;20518;-76
2021/09/12 07:04:56;;;;;;;31.35;18.77;;;;;;;17.35;70.51;99073.69;5020832;28;20129;-77
2021/09/12 07:17:14;;;;;;;;;;;;;;;;;;;;;
2021/09/12 07:28:33;;;;;;;;;;;;;;;;;;;;;
2021/09/12 07:31:29;;;;;;;30.98;16.75;;;;;;;17.70;68.13;99076.13;5410589;23;20112;-77
2021/09/12 07:33:55;;;;;;;27.27;16.77;;;;;;;17.76;68.08;99083.06;5116185;28;20047;-77
2021/09/12 07:36:20;;;;;;;34.53;17.13;;;;;;;17.82;68.08;99076.16;5113530;28;20043;-78
2021/09/12 07:38:46;;;;;;;32.22;15.95;;;;;;;17.88;67.58;99081.50;5078488;28;20142;-78
2021/09/12 07:41:14;;;;;;;31.92;15.77;;;;;;;17.89;67.37;99083.09;5079514;28;20047;-77
2021/09/12 07:43:40;;;;;;;27.08;15.80;;;;;;;17.87;67.42;99086.19;5095202;28;20056;-77
2021/09/12 07:46:06;;;;;;;29.27;16.58;;;;;;;17.92;67.22;99083.22;5102440;28;20099;-72
2021/09/12 07:48:33;;;;;;;30.48;16.88;;;;;;;17.94;67.04;99086.44;5079340;28;20078;-78
2021/09/12 07:50:59;;;;;;;;;;;;;;;17.95;67.25;99088.06;5093474;28;20580;-78
2021/09/12 07:53:25;;;;;;;27.70;16.38;;;;;;;17.90;66.79;99077.22;5075081;28;19924;-76
2021/09/12 07:55:50;;;;;;;29.75;14.80;;;;;;;17.86;66.39;99070.75;5092584;28;20403;-78
2021/09/12 07:58:16;;;;;;;32.08;16.27;;;;;;;17.98;66.45;99070.78;5073486;28;20044;-77
2021/09/12 08:00:42;;;;;;;29.45;17.17;;;;;;;18.04;66.78;99070.59;5073592;28;20507;-76
2021/09/12 08:03:08;;;;;;;27.27;15.85;;;;;;;17.98;66.90;99043.16;5071757;28;20122;-77
2021/09/12 08:05:39;;;;;;;33.67;16.58;;;;;;;18.27;66.74;99066.25;5077979;28;20039;-77
2021/09/12 08:08:05;;;;;;;28.23;16.08;;;;;;;18.41;66.68;99062.31;5112859;28;20047;-76
2021/09/12 08:10:31;;;;;;;28.15;15.68;;;;;;;18.55;66.16;99071.09;5077362;28;20044;-76
2021/09/12 08:12:57;;;;;;;32.63;15.10;;;;;;;18.68;65.58;99076.63;5074259;28;20503;-76
2021/09/12 08:15:23;;;;;;;33.03;15.93;;;;;;;18.82;64.39;99079.06;5091962;28;20055;-76
2021/09/12 08:17:49;;;;;;;49.25;15.73;;;;;;;18.88;64.00;99069.34;5092003;28;20139;-77
2021/09/12 08:20:15;;;;;;;30.80;15.88;;;;;;;18.98;63.77;99085.50;5092127;28;20036;-76
2021/09/12 08:22:42;;;;;;;33.95;15.05;;;;;;;19.01;63.75;99084.00;5057124;28;20125;-76
2021/09/12 08:25:08;;;;;;;;;;;;;;;19.04;63.80;99076.97;5092022;28;20130;-76
2021/09/12 08:27:34;;;;;;;30.52;15.27;;;;;;;19.04;63.67;99086.06;5092911;28;19989;-76
2021/09/12 08:30:01;;;;;;;30.48;16.17;;;;;;;19.03;63.50;99098.28;5074765;28;20496;-77
2021/09/12 08:32:27;;;;;;;32.03;15.70;;;;;;;19.00;63.05;99099.00;5074539;28;20051;-76
2021/09/12 08:35:18;;;;;;;28.65;16.10;;;;;;;18.94;62.06;99079.00;5090394;28;20101;-77
2021/09/12 08:38:00;;;;;;;;;;;;;;;18.96;62.60;99075.91;5069942;28;20134;-77
2021/09/12 08:40:30;;;;;;;27.58;15.13;;;;;;;18.94;62.71;99059.63;5112314;28;19955;-77
2021/09/12 08:42:59;;;;;;;30.75;15.38;;;;;;;19.07;62.45;99066.00;5093335;28;20051;-77
2021/09/12 08:45:26;;;;;;;30.17;16.30;;;;;;;19.15;62.38;99072.56;5069869;28;20098;-77
2021/09/12 08:47:52;;;;;;;28.75;15.65;;;;;;;19.23;62.12;99056.94;5057642;28;20130;-77
2021/09/12 08:50:22;;;;;;;31.90;14.85;;;;;;;19.25;61.34;99055.41;5090257;28;20047;-77
2021/09/12 08:52:51;;;;;;;34.72;15.93;;;;;;;19.32;61.38;99063.13;5074151;28;20454;-77
2021/09/12 08:55:21;;;;;;;33.70;15.98;;;;;;;19.40;61.46;99066.91;5073678;28;20438;-77
2021/09/12 08:57:49;;;;;;;35.90;15.63;;;;;;;19.44;60.24;99067.03;5091241;28;20064;-77
2021/09/12 09:00:16;;;;;;;36.97;16.13;;;;;;;19.41;59.46;99065.75;5072872;28;20123;-77
2021/09/12 09:02:42;;;;;;;31.55;14.60;;;;;;;19.46;59.52;99078.56;5072943;28;20431;-77
2021/09/12 09:05:11;;;;;;;26.23;15.32;;;;;;;19.43;59.16;99066.19;5091767;28;20040;-77
2021/09/12 09:07:40;;;;;;;29.30;15.15;;;;;;;19.45;59.32;99063.09;5091801;28;20488;-77
2021/09/12 09:10:19;;;;;;;38.17;15.57;;;;;;;19.54;59.67;99059.00;5076649;28;20048;-77
2021/09/12 09:12:47;;;;;;;39.92;15.13;;;;;;;19.63;60.00;99067.16;5070403;28;20052;-77
2021/09/12 09:15:15;;;;;;;36.08;14.82;;;;;;;19.61;59.54;99068.69;5071385;28;20097;-78
2021/09/12 09:17:44;;;;;;;31.92;13.23;;;;;;;19.62;59.22;99062.00;5070447;28;20041;-77
2021/09/12 09:20:12;;;;;;;28.70;14.52;;;;;;;19.49;58.81;99080.63;5082408;28;20043;-77
2021/09/12 09:22:43;;;;;;;32.88;14.75;;;;;;;19.39;59.47;99091.06;5091854;28;20052;-77
2021/09/12 09:25:15;;;;;;;33.70;15.05;;;;;;;19.35;60.00;99070.72;5073620;28;20047;-77
2021/09/12 09:27:58;;;;;;;34.88;14.95;;;;;;;19.22;60.60;99077.50;5039819;28;20048;-78
2021/09/12 09:30:31;;;;;;;31.60;14.27;;;;;;;19.25;61.18;99072.03;5090241;28;20067;-78
2021/09/12 09:33:18;;;;;;;27.40;14.35;;;;;;;19.29;61.05;99083.25;5091957;28;20090;-78
2021/09/12 09:35:54;;;;;;;;;;;;;;;19.25;61.18;99077.59;5089877;28;20076;-78
2021/09/12 09:38:22;;;;;;;35.83;13.82;;;;;;;19.18;61.33;99076.56;5037307;28;19951;-78
2021/09/12 09:41:00;;;;;;;37.47;14.95;;;;;;;19.17;61.37;99074.94;5053293;28;20530;-76
2021/09/12 09:43:45;;;;;;;31.98;14.50;;;;;;;19.09;61.17;99085.00;5055106;28;20044;-76
2021/09/12 09:46:30;;;;;;;26.58;14.82;;;;;;;19.07;61.71;99060.44;5070695;28;20053;-76
2021/09/12 09:49:16;;;;;;;30.85;14.77;;;;;;;19.10;61.42;99078.31;5074251;28;20078;-76
2021/09/12 09:51:42;;;;;;;25.38;13.93;;;;;;;19.08;61.03;99061.25;5057159;28;20044;-76
2021/09/12 09:54:09;;;;;;;25.42;13.60;;;;;;;19.07;61.31;99071.53;5075399;28;20089;-76
2021/09/12 09:56:35;;;;;;;30.88;14.93;;;;;;;19.06;61.69;99089.31;5057248;28;20138;-77
2021/09/12 09:59:02;;;;;;;27.73;14.90;;;;;;;19.03;61.60;99078.91;5093023;28;20563;-76
2021/09/12 10:01:29;;;;;;;29.05;15.23;;;;;;;19.01;61.19;99074.88;5077654;28;20039;-77
2021/09/12 10:03:57;;;;;;;27.55;13.93;;;;;;;18.96;61.60;99062.84;5094165;28;20044;-76
2021/09/12 10:06:24;;;;;;;24.63;14.45;;;;;;;18.87;61.60;99070.50;5095828;28;20067;-78
2021/09/12 10:08:50;;;;;;;28.92;14.48;;;;;;;18.87;61.45;99077.97;5095076;28;20079;-77
2021/09/12 10:11:16;;;;;;;28.50;13.90;;;;;;;18.77;61.46;99059.88;5095674;28;20071;-77
2021/09/12 10:13:43;;;;;;;26.63;14.35;;;;;;;18.86;61.83;99077.19;5060360;28;20044;-76
2021/09/12 10:16:13;;;;;;;29.92;15.35;;;;;;;18.83;62.12;99067.59;5074881;28;20044;-77
2021/09/12 10:18:42;;;;;;;32.92;15.38;;;;;;;18.81;62.50;99078.22;5076829;28;20063;-76
2021/09/12 10:21:25;;;;;;;24.70;14.80;;;;;;;18.70;62.61;99077.09;5095090;28;20036;-77
2021/09/12 10:24:03;;;;;;;28.27;14.95;;;;;;;18.62;62.80;99073.28;5095091;28;20048;-77
2021/09/12 10:26:38;;;;;;;29.23;15.45;;;;;;;18.56;63.56;99061.63;5096654;28;20489;-78
2021/09/12 10:29:24;;;;;;;31.20;16.00;;;;;;;18.47;64.07;99066.50;5076432;28;20526;-77
2021/09/12 10:31:51;;;;;;;29.15;15.57;;;;;;;18.40;63.92;99067.06;5095820;28;20104;-77
2021/09/12 10:34:20;;;;;;;;;;;;;;;18.34;63.98;99062.94;5076959;28;20068;-77
2021/09/12 10:36:52;;;;;;;34.63;15.02;;;;;;;18.35;64.51;99056.25;5092271;28;20023;-78
2021/09/12 10:39:31;;;;;;;27.98;14.38;;;;;;;18.41;64.61;99051.25;5094035;28;20559;-78
2021/09/12 10:42:21;;;;;;;27.50;15.35;;;;;;;18.39;64.54;99061.88;5094091;28;20078;-77
2021/09/12 10:45:25;;;;;;;26.77;14.32;;;;;;;18.42;64.16;99063.97;5075748;28;20051;-77
2021/09/12 10:48:20;;;;;;;26.45;14.55;;;;;;;18.47;64.22;99060.13;5092285;28;20050;-77
2021/09/12 10:50:49;;;;;;;28.73;14.20;;;;;;;18.49;64.20;99058.66;5094522;28;20568;-77
2021/09/12 10:53:15;;;;;;;24.50;14.32;;;;;;;18.48;64.31;99057.03;5075793;28;20653;-78
2021/09/12 10:56:01;;;;;;;31.00;14.77;;;;;;;18.43;64.23;99062.81;5092966;28;20068;-77
2021/09/12 10:58:32;;;;;;;26.92;15.45;;;;;;;18.34;64.23;99042.72;5072809;28;20101;-76
2021/09/12 11:01:00;;;;;;;32.83;15.98;;;;;;;18.35;64.73;99055.41;5075473;28;20064;-76
2021/09/12 11:03:28;;;;;;;27.05;15.32;;;;;;;18.38;64.72;99049.19;5072176;28;20040;-78
2021/09/12 11:05:57;;;;;;;34.63;15.55;;;;;;;18.39;64.79;99050.78;5055870;28;20049;-77
2021/09/12 11:08:34;;;;;;;26.58;14.90;;;;;;;18.39;64.85;99048.03;5055810;28;20076;-77
2021/09/12 11:11:01;;;;;;;25.98;15.45;;;;;;;18.40;64.68;99044.94;5060940;28;20040;-77
2021/09/12 11:13:31;;;;;;;28.85;16.50;;;;;;;18.35;65.01;99038.81;5096424;28;20069;-77
2021/09/12 11:16:08;;;;;;;28.63;15.70;;;;;;;18.40;64.95;99052.41;5096044;28;20074;-77
2021/09/12 11:18:43;;;;;;;33.35;16.42;;;;;;;18.45;65.04;99045.84;5090806;28;20045;-77
2021/09/12 11:21:23;;;;;;;33.85;17.20;;;;;;;18.37;65.01;99048.38;5072071;28;20067;-77
2021/09/12 11:23:55;;;;;;;30.63;16.88;;;;;;;18.43;65.11;99051.75;5058865;28;20048;-77
2021/09/12 11:26:24;;;;;;;30.60;16.67;;;;;;;18.39;64.83;99036.97;5092789;28;20063;-77
2021/09/12 11:29:02;;;;;;;33.40;16.83;;;;;;;18.38;65.31;99033.41;5075670;28;20052;-77
2021/09/12 11:31:28;;;;;;;33.58;17.08;;;;;;;18.43;65.41;99026.84;5074258;28;20512;-78
2021/09/12 11:33:56;;;;;;;27.27;16.98;;;;;;;18.47;65.12;99026.94;5075292;28;20048;-77
2021/09/12 11:36:23;;;;;;;;;;;;;;;18.49;64.79;99030.16;5075467;28;20036;-78
2021/09/12 11:38:56;;;;;;;28.30;16.05;;;;;;;18.47;65.16;99022.22;5075051;28;19930;-78
2021/09/12 11:41:27;;;;;;;31.55;17.30;;;;;;;18.48;65.13;99023.81;5093674;28;20165;-77
2021/09/12 11:43:56;;;;;;;27.58;17.52;;;;;;;18.47;64.93;99026.94;5063381;28;20092;-78
2021/09/12 11:46:23;;;;;;;30.92;17.15;;;;;;;18.47;64.92;99022.22;5089376;28;20495;-77